createdAt,value
2019-04-04T00:00:01.425Z,95857.33
2019-04-04T00:02:31.100Z,95858.00
2019-04-04T00:04:59.486Z,95862.48
2019-04-04T00:07:29.175Z,95864.98
2019-04-04T00:09:58.115Z,95849.81
2019-04-04T00:12:26.493Z,95850.67
2019-04-04T00:14:54.880Z,95850.13
2019-04-04T00:17:23.866Z,95850.05
2019-04-04T00:19:52.363Z,95845.28
2019-04-04T00:22:20.741Z,95847.39
2019-04-04T00:24:49.131Z,95847.70
2019-04-04T00:27:17.505Z,95846.80
2019-04-04T00:29:46.022Z,95846.80
2019-04-04T00:32:16.065Z,95839.67
2019-04-04T00:34:44.444Z,95836.25
2019-04-04T00:37:12.821Z,95832.42
2019-04-04T00:39:41.204Z,95846.11
2019-04-04T00:42:09.597Z,95848.14
2019-04-04T00:44:38.006Z,95842.48
2019-04-04T00:47:06.358Z,95837.33
2019-04-04T00:49:35.540Z,95832.34
2019-04-04T00:52:04.683Z,95831.59
2019-04-04T00:54:33.058Z,95835.53
2019-04-04T00:57:01.435Z,95829.17
2019-04-04T00:59:29.816Z,95829.17
2019-04-04T01:01:58.195Z,95832.22
2019-04-04T01:04:26.576Z,95835.77
2019-04-04T01:06:54.956Z,95836.30
2019-04-04T01:09:23.333Z,95839.64
2019-04-04T01:11:51.869Z,95832.23
2019-04-04T01:14:20.270Z,95823.30
2019-04-04T01:16:48.659Z,95817.64
2019-04-04T01:19:19.721Z,95820.05
2019-04-04T01:21:48.109Z,95823.38
2019-04-04T01:24:16.500Z,95823.91
2019-04-04T01:26:44.876Z,95822.02
2019-04-04T01:29:13.272Z,95822.09
2019-04-04T01:31:41.630Z,95819.98
2019-04-04T01:34:10.004Z,95816.19
2019-04-04T01:36:38.396Z,95810.05
2019-04-04T01:39:07.232Z,95812.02
2019-04-04T01:41:36.410Z,95807.41
2019-04-04T01:44:05.633Z,95808.84
2019-04-04T01:46:34.079Z,95815.77
2019-04-04T01:49:02.466Z,95814.73
2019-04-04T01:51:30.849Z,95799.56
2019-04-04T01:54:01.034Z,95793.20
2019-04-04T01:56:29.332Z,95792.50
2019-04-04T01:58:57.716Z,95780.41
2019-04-04T02:01:26.131Z,95779.63
2019-04-04T02:03:54.535Z,95779.59
2019-04-04T02:06:22.916Z,95780.27
2019-04-04T02:08:51.298Z,95767.96
2019-04-04T02:11:19.674Z,95774.23
2019-04-04T02:13:48.072Z,95775.23
2019-04-04T02:16:16.904Z,95762.40
2019-04-04T02:18:45.903Z,95758.30
2019-04-04T02:21:14.285Z,95752.48
2019-04-04T02:23:42.679Z,95754.41
2019-04-04T02:26:11.057Z,95755.16
2019-04-04T02:28:40.022Z,95756.69
2019-04-04T02:31:09.368Z,95753.84
2019-04-04T02:33:37.753Z,95738.86
2019-04-04T02:36:06.139Z,95738.24
2019-04-04T02:38:34.518Z,95738.67
2019-04-04T02:41:02.912Z,95740.41
2019-04-04T02:43:31.391Z,95741.49
2019-04-04T02:45:59.769Z,95731.38
2019-04-04T02:48:28.178Z,95729.66
2019-04-04T02:50:56.714Z,95730.55
2019-04-04T02:53:25.041Z,95728.52
2019-04-04T02:55:53.435Z,95733.33
2019-04-04T02:58:21.894Z,95732.76
2019-04-04T03:00:50.283Z,95707.38
2019-04-04T03:03:18.671Z,95702.84
2019-04-04T03:05:50.954Z,95714.54
2019-04-04T03:08:17.199Z,95726.98
2019-04-04T03:10:48.226Z,95731.32
2019-04-04T03:13:15.715Z,95721.57
2019-04-04T03:15:47.167Z,95712.20
2019-04-04T03:18:14.240Z,95715.66
2019-04-04T03:20:42.639Z,95711.94
2019-04-04T03:23:11.143Z,95714.28
2019-04-04T03:25:39.527Z,95697.75
2019-04-04T03:28:08.257Z,95691.41
2019-04-04T03:30:36.661Z,95688.16
2019-04-04T03:33:05.038Z,95694.70
2019-04-04T03:35:33.463Z,95697.49
2019-04-04T03:38:01.824Z,95693.91
2019-04-04T03:40:30.208Z,95682.75
2019-04-04T03:42:58.632Z,95679.80
2019-04-04T03:45:27.624Z,95687.23
2019-04-04T03:47:56.118Z,95683.03
2019-04-04T03:50:29.047Z,95670.34
2019-04-04T03:52:54.654Z,95663.08
2019-04-04T03:55:23.057Z,95663.14
2019-04-04T03:57:51.868Z,95665.21
2019-04-04T04:00:29.752Z,95653.14
2019-04-04T04:02:58.477Z,95646.80
2019-04-04T04:05:34.554Z,95645.05
2019-04-04T04:08:01.330Z,95646.47
2019-04-04T04:10:33.512Z,95637.13
2019-04-04T04:13:00.871Z,95634.18
2019-04-04T04:15:30.492Z,95625.95
2019-04-04T04:17:59.047Z,95616.91
2019-04-04T04:20:27.594Z,95619.80
2019-04-04T04:22:55.992Z,95616.34
2019-04-04T04:25:24.393Z,95614.27
2019-04-04T04:27:52.798Z,95613.38
2019-04-04T04:30:21.212Z,95614.80
2019-04-04T04:32:55.800Z,95614.27
2019-04-04T04:35:22.678Z,95613.13
2019-04-04T04:37:53.422Z,95616.62
2019-04-04T04:40:21.214Z,95615.70
2019-04-04T04:42:49.676Z,95613.06
2019-04-04T04:45:18.093Z,95611.03
2019-04-04T04:47:46.486Z,95605.30
2019-04-04T04:50:14.942Z,95607.04
2019-04-04T04:52:46.326Z,95603.87
2019-04-04T04:55:13.514Z,95596.56
2019-04-04T04:57:41.923Z,95592.19
2019-04-04T05:00:10.720Z,95587.91
2019-04-04T05:02:39.066Z,95577.41
2019-04-04T05:05:07.535Z,95574.38
2019-04-04T05:07:38.458Z,95570.67
2019-04-04T05:10:07.718Z,95569.39
2019-04-04T05:12:36.122Z,95570.59
2019-04-04T05:15:06.989Z,95573.23
2019-04-04T05:17:35.389Z,95582.99
2019-04-04T05:20:07.685Z,95580.43
2019-04-04T05:22:36.091Z,95569.78
2019-04-04T05:25:08.240Z,95574.02
2019-04-04T05:27:37.349Z,95576.44
2019-04-04T05:30:08.333Z,95562.42
2019-04-04T05:32:36.709Z,95555.33
2019-04-04T05:35:06.812Z,95551.94
2019-04-04T05:37:37.974Z,95544.30
2019-04-04T05:40:06.853Z,95540.83
2019-04-04T05:42:35.295Z,95533.97
2019-04-04T05:45:06.003Z,95537.30
2019-04-04T05:47:34.397Z,95542.04
2019-04-04T05:50:02.985Z,95548.45
2019-04-04T05:52:32.693Z,95538.97
2019-04-04T05:55:01.442Z,95532.55
2019-04-04T05:57:29.853Z,95518.73
2019-04-04T05:59:58.245Z,95510.55
2019-04-04T06:02:26.620Z,95519.77
2019-04-04T06:04:55.505Z,95521.59
2019-04-04T06:07:24.005Z,95508.45
2019-04-04T06:09:52.385Z,95511.64
2019-04-04T06:12:20.795Z,95502.11
2019-04-04T06:14:49.180Z,95501.88
2019-04-04T06:17:17.566Z,95493.66
2019-04-04T06:19:45.953Z,95490.41
2019-04-04T06:22:14.342Z,95490.50
2019-04-04T06:24:42.729Z,95483.66
2019-04-04T06:27:11.119Z,95469.50
2019-04-04T06:29:39.501Z,95474.13
2019-04-04T06:32:07.920Z,95469.66
2019-04-04T06:34:36.306Z,95467.19
2019-04-04T06:37:04.698Z,95465.00
2019-04-04T06:39:33.085Z,95459.73
2019-04-04T06:42:03.260Z,95456.73
2019-04-04T06:44:31.615Z,95448.69
2019-04-04T06:47:02.021Z,95451.95
2019-04-04T06:49:30.132Z,95442.67
2019-04-04T06:51:58.584Z,95427.48
2019-04-04T06:54:26.989Z,95434.83
2019-04-04T06:56:55.360Z,95425.36
2019-04-04T06:59:23.811Z,95425.09
2019-04-04T07:01:52.648Z,95415.00
2019-04-04T07:04:21.041Z,95412.42
2019-04-04T07:06:49.449Z,95407.39
2019-04-04T07:09:19.015Z,95402.31
2019-04-04T07:11:47.706Z,95406.81
2019-04-04T07:14:16.113Z,95392.73
2019-04-04T07:16:44.523Z,95393.84
2019-04-04T07:19:15.093Z,95394.40
2019-04-04T07:21:43.574Z,95367.34
2019-04-04T07:24:11.961Z,95379.69
2019-04-04T07:26:40.350Z,95381.51
2019-04-04T07:29:08.738Z,95373.80
2019-04-04T07:31:38.377Z,95378.94
2019-04-04T07:34:07.026Z,95375.09
2019-04-04T07:36:35.418Z,95372.16
2019-04-04T07:39:04.967Z,95369.02
2019-04-04T07:41:33.351Z,95369.39
2019-04-04T07:44:01.749Z,95365.34
2019-04-04T07:46:30.127Z,95360.92
2019-04-04T07:48:58.523Z,95359.98
2019-04-04T07:51:28.122Z,95362.53
2019-04-04T07:53:57.043Z,95352.95
2019-04-04T07:56:25.424Z,95346.22
2019-04-04T07:58:53.957Z,95343.16
2019-04-04T08:01:22.333Z,95342.72
2019-04-04T08:03:50.722Z,95345.47
2019-04-04T08:06:19.114Z,95346.70
2019-04-04T08:08:47.538Z,95346.94
2019-04-04T08:11:15.932Z,95353.16
2019-04-04T08:13:44.355Z,95351.61
2019-04-04T08:16:12.774Z,95349.39
2019-04-04T08:18:41.182Z,95350.03
2019-04-04T08:21:09.569Z,95353.91
2019-04-04T08:23:37.946Z,95326.34
2019-04-04T08:26:06.426Z,95327.13
2019-04-04T08:28:34.806Z,95322.20
2019-04-04T08:31:03.285Z,95322.34
2019-04-04T08:33:31.681Z,95338.91
2019-04-04T08:36:05.845Z,95322.25
2019-04-04T08:38:30.249Z,95327.48
2019-04-04T08:40:58.678Z,95327.31
2019-04-04T08:43:27.104Z,95324.77
2019-04-04T08:45:55.531Z,95329.50
2019-04-04T08:48:23.959Z,95324.24
2019-04-04T08:50:52.329Z,95327.09
2019-04-04T08:53:20.787Z,95317.38
2019-04-04T08:55:49.184Z,95312.67
2019-04-04T08:58:17.605Z,95318.21
2019-04-04T09:00:46.051Z,95313.75
2019-04-04T09:03:14.523Z,95314.10
2019-04-04T09:05:42.871Z,95310.38
2019-04-04T09:08:11.285Z,95309.28
2019-04-04T09:10:39.697Z,95302.11
2019-04-04T09:13:08.091Z,95299.78
2019-04-04T09:15:36.559Z,95312.80
2019-04-04T09:18:05.082Z,95306.73
2019-04-04T09:20:33.490Z,95294.59
2019-04-04T09:23:01.875Z,95291.94
2019-04-04T09:25:30.276Z,95296.56
2019-04-04T09:27:58.666Z,95296.96
2019-04-04T09:30:27.185Z,95300.27
2019-04-04T09:32:55.580Z,95295.44
2019-04-04T09:35:23.977Z,95284.71
2019-04-04T09:37:52.375Z,95280.02
2019-04-04T09:40:20.793Z,95279.91
2019-04-04T09:42:49.186Z,95266.89
2019-04-04T09:45:18.052Z,95261.35
2019-04-04T09:47:46.435Z,95255.27
2019-04-04T09:50:15.280Z,95261.01
2019-04-04T09:52:43.710Z,95268.01
2019-04-04T09:55:12.246Z,95264.70
2019-04-04T09:57:40.663Z,95266.75
2019-04-04T10:00:14.841Z,95258.13
2019-04-04T10:02:43.331Z,95273.32
2019-04-04T10:05:12.179Z,95277.23
2019-04-04T10:07:40.593Z,95262.27
2019-04-04T10:10:09.720Z,95259.72
2019-04-04T10:12:38.173Z,95273.14
2019-04-04T10:15:08.445Z,95267.30
2019-04-04T10:17:36.919Z,95270.51
2019-04-04T10:20:07.044Z,95273.78
2019-04-04T10:22:35.450Z,95281.67
2019-04-04T10:25:04.605Z,95279.67
2019-04-04T10:27:32.995Z,95281.36
2019-04-04T10:30:01.379Z,95289.92
2019-04-04T10:32:29.798Z,95287.31
2019-04-04T10:34:58.195Z,95291.70
2019-04-04T10:37:26.671Z,95294.63
2019-04-04T10:39:55.056Z,95288.50
2019-04-04T10:42:23.473Z,95291.17
2019-04-04T10:44:51.892Z,95288.58
2019-04-04T10:47:20.544Z,95286.06
2019-04-04T10:49:48.991Z,95287.30
2019-04-04T10:52:17.317Z,95292.00
2019-04-04T10:54:46.704Z,95289.27
2019-04-04T10:57:15.094Z,95282.88
2019-04-04T10:59:43.488Z,95283.58
2019-04-04T11:02:11.946Z,95289.31
2019-04-04T11:04:40.325Z,95282.04
2019-04-04T11:07:08.723Z,95272.95
2019-04-04T11:09:42.255Z,95277.41
2019-04-04T11:12:07.267Z,95274.15
2019-04-04T11:14:35.658Z,95270.39
2019-04-04T11:17:04.112Z,95265.52
2019-04-04T11:19:32.516Z,95265.17
2019-04-04T11:22:00.908Z,95277.32
2019-04-04T11:24:29.297Z,95270.50
2019-04-04T11:26:57.681Z,95269.59
2019-04-04T11:29:26.100Z,95273.27
2019-04-04T11:31:54.486Z,95263.39
2019-04-04T11:34:22.974Z,95261.67
2019-04-04T11:36:51.363Z,95264.02
2019-04-04T11:39:19.752Z,95266.33
2019-04-04T11:41:48.219Z,95259.17
2019-04-04T11:44:16.632Z,95257.86
2019-04-04T11:46:45.223Z,95260.97
2019-04-04T11:49:13.729Z,95254.59
2019-04-04T11:51:42.134Z,95252.63
2019-04-04T11:54:10.668Z,95255.23
2019-04-04T11:56:39.069Z,95256.27
2019-04-04T11:59:08.302Z,95253.87
2019-04-04T12:01:40.993Z,95245.23
2019-04-04T12:04:09.449Z,95248.04
2019-04-04T12:06:37.832Z,95236.10
2019-04-04T12:09:07.727Z,95238.41
2019-04-04T12:11:36.248Z,95236.48
2019-04-04T12:14:05.383Z,95229.16
2019-04-04T12:16:34.683Z,95226.38
2019-04-04T12:19:03.106Z,95238.16
2019-04-04T12:21:31.509Z,95237.48
2019-04-04T12:23:59.969Z,95240.52
2019-04-04T12:26:28.365Z,95246.17
2019-04-04T12:28:56.997Z,95246.17
2019-04-04T12:31:25.386Z,95244.80
2019-04-04T12:33:53.879Z,95244.77
2019-04-04T12:36:24.913Z,95240.51
2019-04-04T12:38:52.389Z,95241.47
2019-04-04T12:41:20.787Z,95240.97
2019-04-04T12:43:49.253Z,95242.41
2019-04-04T12:46:17.640Z,95241.06
2019-04-04T12:48:46.050Z,95237.63
2019-04-04T12:51:14.436Z,95241.06
2019-04-04T12:53:42.835Z,95236.17
2019-04-04T12:56:11.215Z,95236.02
2019-04-04T12:58:39.619Z,95235.20
2019-04-04T13:01:07.999Z,95239.09
2019-04-04T13:03:36.428Z,95235.79
2019-04-04T13:06:04.937Z,95241.16
2019-04-04T13:08:33.333Z,95241.78
2019-04-04T13:11:01.786Z,95252.25
2019-04-04T13:13:30.184Z,95249.16
2019-04-04T13:15:58.592Z,95242.28
2019-04-04T13:18:26.979Z,95241.33
2019-04-04T13:20:55.442Z,95241.33
2019-04-04T13:23:23.845Z,95245.28
2019-04-04T13:25:52.240Z,95244.48
2019-04-04T13:28:20.732Z,95242.02
2019-04-04T13:30:49.189Z,95240.02
2019-04-04T13:33:17.636Z,95243.94
2019-04-04T13:35:46.026Z,95244.09
2019-04-04T13:38:14.397Z,95241.63
2019-04-04T13:40:45.734Z,95237.40
2019-04-04T13:43:12.941Z,95230.52
2019-04-04T13:45:41.328Z,95239.83
2019-04-04T13:48:10.684Z,95241.31
2019-04-04T13:50:39.876Z,95237.71
2019-04-04T13:53:08.256Z,95252.78
2019-04-04T13:55:39.211Z,95242.67
2019-04-04T13:58:11.097Z,95245.63
2019-04-04T14:00:40.971Z,95243.71
2019-04-04T14:03:10.702Z,95247.67
2019-04-04T14:05:39.903Z,95252.44
2019-04-04T14:08:10.007Z,95245.09
2019-04-04T14:10:39.415Z,95247.70
2019-04-04T14:13:07.794Z,95254.62
2019-04-04T14:15:36.270Z,95253.06
2019-04-04T14:18:08.450Z,95256.38
2019-04-04T14:20:37.080Z,95257.41
2019-04-04T14:23:07.515Z,95252.17
2019-04-04T14:25:39.697Z,95268.53
2019-04-04T14:28:08.642Z,95269.16
2019-04-04T14:30:37.043Z,95268.50
2019-04-04T14:33:05.438Z,95275.55
2019-04-04T14:35:34.900Z,95284.55
2019-04-04T14:38:06.875Z,95293.40
2019-04-04T14:40:35.593Z,95290.09
2019-04-04T14:43:04.277Z,95298.23
2019-04-04T14:45:35.868Z,95298.14
2019-04-04T14:48:10.965Z,95311.80
2019-04-04T14:50:40.804Z,95304.56
2019-04-04T14:53:12.511Z,95309.80
2019-04-04T14:55:41.020Z,95323.84
2019-04-04T14:58:09.419Z,95339.83
2019-04-04T15:00:37.874Z,95325.74
2019-04-04T15:03:06.275Z,95330.28
2019-04-04T15:05:39.867Z,95347.08
2019-04-04T15:08:13.439Z,95236.41
2019-04-04T15:10:41.976Z,95343.90
2019-04-04T15:13:10.385Z,95339.13
2019-04-04T15:15:41.836Z,95342.91
2019-04-04T15:18:10.219Z,95342.91
2019-04-04T15:20:38.625Z,95345.86
2019-04-04T15:23:07.019Z,95352.40
2019-04-04T15:25:35.413Z,95366.05
2019-04-04T15:28:03.881Z,95316.45
2019-04-04T15:30:32.291Z,95379.66
2019-04-04T15:33:02.668Z,95378.88
2019-04-04T15:35:30.849Z,95390.22
2019-04-04T15:37:59.242Z,95392.23
2019-04-04T15:40:27.667Z,95390.26
2019-04-04T15:42:56.060Z,95394.63
2019-04-04T15:45:24.521Z,95423.30
2019-04-04T15:47:53.009Z,95428.95
2019-04-04T15:50:21.475Z,95437.94
2019-04-04T15:52:49.968Z,95451.20
2019-04-04T15:55:18.360Z,95462.95
2019-04-04T15:57:46.840Z,95473.95
2019-04-04T16:00:15.606Z,95479.75
2019-04-04T16:02:44.001Z,95481.31
2019-04-04T16:05:12.664Z,95485.32
2019-04-04T16:07:41.067Z,95488.89
2019-04-04T16:10:09.793Z,95500.31
2019-04-04T16:12:38.228Z,95497.41
2019-04-04T16:15:07.526Z,95514.08
2019-04-04T16:17:35.977Z,95519.72
2019-04-04T16:20:07.644Z,95531.39
2019-04-04T16:22:36.046Z,95534.58
2019-04-04T16:25:06.357Z,95541.87
2019-04-04T16:27:34.767Z,95552.81
2019-04-04T16:30:03.714Z,95554.53
2019-04-04T16:32:32.130Z,95558.72
2019-04-04T16:35:00.524Z,95561.53
2019-04-04T16:37:28.919Z,95578.23
2019-04-04T16:40:08.185Z,95572.52
2019-04-04T16:42:27.496Z,95588.36
2019-04-04T16:44:55.957Z,95578.37
2019-04-04T16:47:24.357Z,95589.38
2019-04-04T16:49:52.802Z,95594.27
2019-04-04T16:52:21.227Z,95595.77
2019-04-04T16:54:49.628Z,95611.97
2019-04-04T16:57:18.029Z,95623.63
2019-04-04T16:59:46.421Z,95625.47
2019-04-04T17:02:14.831Z,95626.47
2019-04-04T17:04:43.217Z,95629.95
2019-04-04T17:07:11.612Z,95635.06
2019-04-04T17:09:40.032Z,95638.16
2019-04-04T17:12:14.785Z,95644.77
2019-04-04T17:14:38.544Z,95660.94
2019-04-04T17:17:06.938Z,95668.91
2019-04-04T17:19:35.485Z,95674.66
2019-04-04T17:22:03.941Z,95686.78
2019-04-04T17:24:32.325Z,95682.15
2019-04-04T17:27:00.741Z,95699.95
2019-04-04T17:29:29.135Z,95706.20
2019-04-04T17:31:57.605Z,95712.87
2019-04-04T17:34:26.325Z,95715.66
2019-04-04T17:36:55.164Z,95722.17
2019-04-04T17:39:23.536Z,95732.04
2019-04-04T17:41:52.072Z,95738.63
2019-04-04T17:44:20.564Z,95738.26
2019-04-04T17:46:49.321Z,95744.95
2019-04-04T17:49:17.996Z,95752.81
2019-04-04T17:51:46.895Z,95771.72
2019-04-04T17:54:15.404Z,95782.54
2019-04-04T17:56:44.319Z,95786.66
2019-04-04T17:59:12.730Z,95790.29
2019-04-04T18:01:41.125Z,95807.47
2019-04-04T18:04:09.516Z,95811.54
2019-04-04T18:06:40.564Z,95811.28
2019-04-04T18:09:09.272Z,95818.12
2019-04-04T18:11:37.733Z,95828.08
2019-04-04T18:14:06.196Z,95842.22
2019-04-04T18:16:34.641Z,95815.36
2019-04-04T18:19:04.188Z,95840.75
2019-04-04T18:21:32.649Z,95849.30
2019-04-04T18:24:01.049Z,95842.94
2019-04-04T18:26:29.436Z,95852.91
2019-04-04T18:28:57.853Z,95853.73
2019-04-04T18:31:26.243Z,95856.69
2019-04-04T18:33:54.986Z,95860.39
2019-04-04T18:36:23.407Z,95880.20
2019-04-04T18:38:51.822Z,95752.80
2019-04-04T18:41:20.205Z,95875.88
2019-04-04T18:43:48.642Z,95864.26
2019-04-04T18:46:17.102Z,95862.19
2019-04-04T18:48:45.535Z,95865.30
2019-04-04T18:51:14.116Z,95869.99
2019-04-04T18:53:42.509Z,95874.34
2019-04-04T18:56:10.895Z,95885.86
2019-04-04T18:58:39.297Z,95896.45
2019-04-04T19:01:07.739Z,95893.87
2019-04-04T19:03:36.135Z,95894.98
2019-04-04T19:06:04.615Z,95897.65
2019-04-04T19:08:33.029Z,95901.73
2019-04-04T19:11:01.483Z,95905.77
2019-04-04T19:13:38.496Z,95914.80
2019-04-04T19:16:00.068Z,95921.89
2019-04-04T19:18:28.558Z,95939.48
2019-04-04T19:20:57.024Z,95952.13
2019-04-04T19:23:25.555Z,95955.53
2019-04-04T19:25:54.150Z,95963.11
2019-04-04T19:28:22.683Z,95967.37
2019-04-04T19:30:51.066Z,95975.84
2019-04-04T19:33:19.551Z,95988.97
2019-04-04T19:35:47.946Z,96004.94
2019-04-04T19:38:16.336Z,96012.21
2019-04-04T19:40:44.747Z,96003.84
2019-04-04T19:43:18.271Z,96003.91
2019-04-04T19:45:43.277Z,96000.67
2019-04-04T19:48:11.738Z,95991.66
2019-04-04T19:50:40.149Z,95990.19
2019-04-04T19:53:08.605Z,95985.93
2019-04-04T19:55:37.033Z,95986.59
2019-04-04T19:58:05.411Z,95984.56
2019-04-04T20:00:33.979Z,95983.59
2019-04-04T20:03:02.369Z,95986.50
2019-04-04T20:05:30.769Z,95986.83
2019-04-04T20:07:59.398Z,95991.25
2019-04-04T20:10:27.802Z,95997.77
2019-04-04T20:12:56.190Z,96007.70
2019-04-04T20:15:24.580Z,96017.89
2019-04-04T20:17:53.006Z,96014.04
2019-04-04T20:20:21.876Z,96022.23
2019-04-04T20:22:50.264Z,96029.43
2019-04-04T20:25:18.748Z,96027.23
2019-04-04T20:27:54.677Z,96029.81
2019-04-04T20:30:19.255Z,96036.03
2019-04-04T20:32:47.668Z,96046.27
2019-04-04T20:35:16.064Z,96039.58
2019-04-04T20:37:44.486Z,96047.16
2019-04-04T20:40:13.000Z,96058.38
2019-04-04T20:42:41.411Z,96070.36
2019-04-04T20:45:09.894Z,96062.09
2019-04-04T20:47:38.396Z,96057.78
2019-04-04T20:50:07.126Z,96064.31
2019-04-04T20:52:35.528Z,96060.83
2019-04-04T20:55:04.845Z,96068.77
2019-04-04T20:57:33.232Z,96073.84
2019-04-04T21:00:01.625Z,96077.81
2019-04-04T21:02:30.031Z,96071.23
2019-04-04T21:04:58.420Z,96074.18
2019-04-04T21:07:27.799Z,96073.66
2019-04-04T21:09:56.190Z,96065.78
2019-04-04T21:12:24.606Z,96072.28
2019-04-04T21:14:52.997Z,96083.44
2019-04-04T21:17:21.389Z,96083.36
2019-04-04T21:19:49.781Z,96080.94
2019-04-04T21:22:27.339Z,96080.16
2019-04-04T21:24:48.309Z,96084.80
2019-04-04T21:27:18.766Z,96093.67
2019-04-04T21:29:46.880Z,96101.68
2019-04-04T21:32:15.281Z,96115.78
2019-04-04T21:34:43.659Z,96128.75
2019-04-04T21:37:12.074Z,96138.81
2019-04-04T21:39:41.357Z,96146.00
2019-04-04T21:42:09.761Z,96144.13
2019-04-04T21:44:38.180Z,96133.83
2019-04-04T21:47:06.535Z,96121.02
2019-04-04T21:49:34.925Z,96126.17
2019-04-04T21:52:03.332Z,96130.61
2019-04-04T21:54:31.716Z,96129.40
2019-04-04T21:57:00.140Z,96132.83
2019-04-04T21:59:28.534Z,96136.91
2019-04-04T22:01:57.042Z,96152.00
2019-04-04T22:04:25.432Z,96157.75
2019-04-04T22:06:53.844Z,96155.96
2019-04-04T22:09:22.305Z,96156.11
2019-04-04T22:11:50.765Z,96156.80
2019-04-04T22:14:21.904Z,96156.94
2019-04-04T22:16:49.286Z,96146.00
2019-04-04T22:19:17.671Z,96146.29
2019-04-04T22:21:46.054Z,96151.44
2019-04-04T22:24:14.448Z,96157.73
2019-04-04T22:26:42.858Z,96150.94
2019-04-04T22:29:11.272Z,96149.65
2019-04-04T22:31:39.669Z,96141.92
2019-04-04T22:34:08.063Z,96147.83
2019-04-04T22:36:36.475Z,96144.78
2019-04-04T22:39:07.418Z,96144.78
2019-04-04T22:41:35.806Z,96140.63
2019-04-04T22:44:04.287Z,96131.38
2019-04-04T22:46:32.680Z,96134.09
2019-04-04T22:49:01.088Z,96146.22
2019-04-04T22:51:29.499Z,96141.53
2019-04-04T22:53:57.923Z,96145.33
2019-04-04T22:56:26.333Z,96141.46
2019-04-04T22:58:54.716Z,96145.61
2019-04-04T23:01:23.105Z,96141.58
2019-04-04T23:03:51.497Z,96143.83
2019-04-04T23:06:19.959Z,96143.47
2019-04-04T23:08:48.354Z,96146.58
2019-04-04T23:11:16.745Z,96150.44
2019-04-04T23:13:45.177Z,96153.16
2019-04-04T23:16:13.631Z,96141.32
2019-04-04T23:18:42.032Z,96143.50
2019-04-04T23:21:10.421Z,96150.72
2019-04-04T23:23:38.813Z,96157.30
2019-04-04T23:26:07.197Z,96161.05
2019-04-04T23:28:35.587Z,96154.53
2019-04-04T23:31:03.977Z,96149.75
2019-04-04T23:33:32.386Z,96161.52
2019-04-04T23:36:00.792Z,96159.23
2019-04-04T23:38:29.185Z,96159.77
2019-04-04T23:40:57.579Z,96158.25
2019-04-04T23:43:25.964Z,96160.58
2019-04-04T23:45:54.351Z,96169.58
2019-04-04T23:48:22.747Z,96168.69
2019-04-04T23:50:51.135Z,96167.08
2019-04-04T23:53:19.539Z,96160.31
2019-04-04T23:55:47.939Z,96173.25
2019-04-04T23:58:16.328Z,96156.23
